createdAt,value
2023-03-12T00:01:54.201Z,7.40
2023-03-12T00:06:55.662Z,6.97
2023-03-12T00:11:57.054Z,8.32
2023-03-12T00:16:58.532Z,9.73
2023-03-12T00:21:59.883Z,8.57
2023-03-12T00:27:01.293Z,5.32
2023-03-12T00:32:02.715Z,6.72
2023-03-12T00:37:04.145Z,12.38
2023-03-12T00:42:05.728Z,8.25
2023-03-12T00:47:07.205Z,14.95
2023-03-12T00:52:08.663Z,11.27
2023-03-12T00:57:10.075Z,9.82
2023-03-12T01:02:11.470Z,13.23
2023-03-12T01:07:12.926Z,12.35
2023-03-12T01:12:14.330Z,12.75
2023-03-12T01:17:15.741Z,12.70
2023-03-12T01:22:17.128Z,11.98
2023-03-12T01:27:18.658Z,13.90
2023-03-12T01:32:20.255Z,12.82
2023-03-12T01:37:21.961Z,12.80
2023-03-12T01:42:23.396Z,11.13
2023-03-12T01:47:24.990Z,14.27
2023-03-12T01:52:29.333Z,10.68
2023-03-12T01:57:34.485Z,12.65
2023-03-12T02:02:36.312Z,12.35
2023-03-12T02:07:37.756Z,14.73
2023-03-12T02:12:39.406Z,12.48
2023-03-12T02:17:40.986Z,14.57
2023-03-12T02:22:44.612Z,17.08
2023-03-12T02:27:46.275Z,17.42
2023-03-12T02:32:48.754Z,12.48
2023-03-12T02:37:50.877Z,16.20
2023-03-12T02:42:52.837Z,13.48
2023-03-12T02:47:54.231Z,14.85
2023-03-12T02:52:55.685Z,15.52
2023-03-12T02:57:57.066Z,12.10
2023-03-12T03:02:59.237Z,13.38
2023-03-12T03:08:00.938Z,14.63
2023-03-12T03:13:02.337Z,14.13
2023-03-12T03:18:03.999Z,13.93
2023-03-12T03:23:05.538Z,13.65
2023-03-12T03:28:06.939Z,14.65
2023-03-12T03:33:08.359Z,10.80
2023-03-12T03:38:09.746Z,13.38
2023-03-12T03:43:11.174Z,15.18
2023-03-12T03:48:12.971Z,10.68
2023-03-12T03:53:14.376Z,11.38
2023-03-12T03:58:16.355Z,12.07
2023-03-12T04:03:17.948Z,12.48
2023-03-12T04:08:19.383Z,13.52
2023-03-12T04:13:21.202Z,12.48
2023-03-12T04:18:22.585Z,12.70
2023-03-12T04:23:24.263Z,13.95
2023-03-12T04:28:25.858Z,10.75
2023-03-12T04:33:31.863Z,10.05
2023-03-12T04:38:33.579Z,9.50
2023-03-12T04:43:35.072Z,11.77
2023-03-12T04:48:36.601Z,10.13
2023-03-12T04:53:38.351Z,13.93
2023-03-12T04:58:39.884Z,11.15
2023-03-12T05:03:41.321Z,11.10
2023-03-12T05:08:42.816Z,11.70
2023-03-12T05:13:44.277Z,8.15
2023-03-12T05:18:47.287Z,10.02
2023-03-12T05:23:48.736Z,10.13
2023-03-12T05:28:50.647Z,11.50
2023-03-12T05:33:53.117Z,10.90
2023-03-12T05:38:54.602Z,12.93
2023-03-12T05:43:57.261Z,9.63
2023-03-12T05:48:58.944Z,13.50
2023-03-12T05:54:00.455Z,12.88
2023-03-12T05:59:01.873Z,9.32
2023-03-12T06:04:03.274Z,10.35
2023-03-12T06:09:05.865Z,11.65
2023-03-12T06:14:07.304Z,14.75
2023-03-12T06:19:08.776Z,13.35
2023-03-12T06:24:10.292Z,15.57
2023-03-12T06:29:11.993Z,9.65
2023-03-12T06:34:13.808Z,11.15
2023-03-12T06:39:15.279Z,18.17
2023-03-12T06:44:16.781Z,11.55
2023-03-12T06:49:18.193Z,11.65
2023-03-12T06:54:19.595Z,14.68
2023-03-12T06:59:21.813Z,12.13
2023-03-12T07:04:23.413Z,11.43
2023-03-12T07:09:24.866Z,14.15
2023-03-12T07:14:26.696Z,13.32
2023-03-12T07:19:30.308Z,12.38
2023-03-12T07:24:31.861Z,15.93
2023-03-12T07:29:33.318Z,15.75
2023-03-12T07:34:34.945Z,15.82
2023-03-12T07:39:36.400Z,15.43
2023-03-12T07:44:37.982Z,13.90
2023-03-12T07:49:41.747Z,15.13
2023-03-12T07:54:43.385Z,14.25
2023-03-12T07:59:44.878Z,14.77
2023-03-12T08:04:46.884Z,15.93
2023-03-12T08:09:49.912Z,17.67
2023-03-12T08:14:51.555Z,14.88
2023-03-12T08:19:53.021Z,16.13
2023-03-12T08:24:54.394Z,14.00
2023-03-12T08:29:56.070Z,16.23
2023-03-12T08:34:57.935Z,18.98
2023-03-12T08:39:59.686Z,14.43
2023-03-12T08:45:01.116Z,17.92
2023-03-12T08:50:02.538Z,15.73
2023-03-12T08:55:05.945Z,15.25
2023-03-12T09:00:11.521Z,16.27
2023-03-12T09:05:13.657Z,17.50
2023-03-12T09:10:15.084Z,16.23
2023-03-12T09:15:16.503Z,19.17
2023-03-12T09:20:18.082Z,16.27
2023-03-12T09:25:19.744Z,14.90
2023-03-12T09:30:21.962Z,16.50
2023-03-12T09:35:23.451Z,21.42
2023-03-12T09:40:26.660Z,20.95
2023-03-12T09:45:30.518Z,24.95
2023-03-12T09:50:33.631Z,23.33
2023-03-12T09:55:37.130Z,28.42
2023-03-12T10:00:38.714Z,26.85
2023-03-12T10:05:40.223Z,24.95
2023-03-12T10:10:43.161Z,23.10
2023-03-12T10:15:57.556Z,22.77
2023-03-12T10:20:59.037Z,21.63
2023-03-12T10:26:05.875Z,22.52
2023-03-12T10:31:13.045Z,22.55
2023-03-12T10:36:17.032Z,18.58
2023-03-12T10:41:23.754Z,18.55
2023-03-12T10:46:40.276Z,19.67
2023-03-12T10:51:56.142Z,19.75
2023-03-12T10:56:57.720Z,16.13
2023-03-12T11:01:59.870Z,18.10
2023-03-12T11:07:22.743Z,21.85
2023-03-12T11:12:25.845Z,21.27
2023-03-12T11:17:28.603Z,22.85
2023-03-12T11:22:31.636Z,18.75
2023-03-12T11:27:38.012Z,18.98
2023-03-12T11:32:44.102Z,22.25
2023-03-12T11:38:24.199Z,22.13
2023-03-12T11:43:44.455Z,16.47
2023-03-12T11:48:59.081Z,21.02
2023-03-12T11:54:12.950Z,17.38
2023-03-12T11:59:32.966Z,27.65
2023-03-12T12:04:52.487Z,26.48
2023-03-12T12:09:59.536Z,23.77
2023-03-12T12:15:00.941Z,23.75
2023-03-12T12:20:21.726Z,26.58
2023-03-12T12:25:35.451Z,27.92
2023-03-12T12:30:45.318Z,26.92
2023-03-12T12:40:50.620Z,27.42
2023-03-12T12:45:52.890Z,33.92
2023-03-12T12:50:54.841Z,23.88
2023-03-12T12:55:59.236Z,31.52
2023-03-12T13:01:00.958Z,35.00
2023-03-12T13:06:03.814Z,26.17
2023-03-12T13:11:25.527Z,24.67
2023-03-12T13:16:30.080Z,33.22
2023-03-12T13:21:36.939Z,31.50
2023-03-12T13:26:46.543Z,26.38
2023-03-12T13:31:47.998Z,33.05
2023-03-12T13:36:53.393Z,35.95
2023-03-12T13:41:56.113Z,32.80
2023-03-12T13:47:16.330Z,37.45
2023-03-12T13:52:20.920Z,23.75
2023-03-12T13:57:29.459Z,29.48
2023-03-12T14:02:33.726Z,31.08
2023-03-12T14:07:44.146Z,37.13
2023-03-12T14:12:45.743Z,37.15
2023-03-12T14:17:55.319Z,32.65
2023-03-12T14:22:59.070Z,35.63
2023-03-12T14:28:27.869Z,30.30
2023-03-12T14:33:39.147Z,36.83
2023-03-12T14:38:43.206Z,34.22
2023-03-12T14:43:46.458Z,34.33
2023-03-12T14:48:49.461Z,40.20
2023-03-12T14:53:51.130Z,41.53
2023-03-12T14:58:52.556Z,31.63
2023-03-12T15:03:55.446Z,26.67
2023-03-12T15:08:57.631Z,37.28
2023-03-12T15:14:03.497Z,27.25
2023-03-12T15:19:05.150Z,30.73
2023-03-12T15:24:07.623Z,29.60
2023-03-12T15:29:26.194Z,27.17
2023-03-12T15:34:32.186Z,34.95
2023-03-12T15:39:35.202Z,39.42
2023-03-12T15:44:44.425Z,35.08
2023-03-12T15:49:52.401Z,33.22
2023-03-12T15:55:00.186Z,29.23
2023-03-12T16:00:08.674Z,38.17
2023-03-12T16:05:10.143Z,37.72
2023-03-12T16:10:14.705Z,38.50
2023-03-12T16:15:17.518Z,31.67
2023-03-12T16:20:20.042Z,33.20
2023-03-12T16:25:22.255Z,39.65
2023-03-12T16:30:23.760Z,40.78
2023-03-12T16:35:27.045Z,35.47
2023-03-12T16:40:33.635Z,34.38
2023-03-12T16:45:36.493Z,33.08
2023-03-12T16:50:38.424Z,33.85
2023-03-12T16:55:50.677Z,40.97
2023-03-12T17:00:53.085Z,38.95
2023-03-12T17:05:54.570Z,31.30
2023-03-12T17:10:56.625Z,37.72
2023-03-12T17:15:58.096Z,30.05
2023-03-12T17:20:59.897Z,36.60
2023-03-12T17:26:01.355Z,39.13
2023-03-12T17:31:02.860Z,36.85
2023-03-12T17:36:05.855Z,34.00
2023-03-12T17:41:23.412Z,41.03
2023-03-12T17:46:27.084Z,40.23
2023-03-12T17:51:28.567Z,41.13
2023-03-12T17:56:30.192Z,43.15
2023-03-12T18:01:31.619Z,38.53
2023-03-12T18:06:33.095Z,40.88
2023-03-12T18:11:34.558Z,38.72
2023-03-12T18:16:36.009Z,52.50
2023-03-12T18:21:37.445Z,45.13
2023-03-12T18:26:38.962Z,39.33
2023-03-12T18:31:40.474Z,47.08
2023-03-12T18:36:42.014Z,45.50
2023-03-12T18:41:43.430Z,33.63
2023-03-12T18:46:44.926Z,45.05
2023-03-12T18:51:46.544Z,40.78
2023-03-12T18:56:47.965Z,44.83
2023-03-12T19:01:49.649Z,39.90
2023-03-12T19:06:51.996Z,38.20
2023-03-12T19:11:53.645Z,36.15
2023-03-12T19:16:55.463Z,31.80
2023-03-12T19:21:57.493Z,25.67
2023-03-12T19:26:58.926Z,27.38
2023-03-12T19:32:00.355Z,27.05
2023-03-12T19:37:01.801Z,27.15
2023-03-12T19:42:03.270Z,21.02
2023-03-12T19:47:06.972Z,23.10
2023-03-12T19:52:08.662Z,27.08
2023-03-12T19:57:10.113Z,29.98
2023-03-12T20:02:15.248Z,29.67
2023-03-12T20:07:18.482Z,27.60
2023-03-12T20:12:21.188Z,35.70
2023-03-12T20:17:22.760Z,28.58
2023-03-12T20:22:26.193Z,29.95
2023-03-12T20:27:27.644Z,26.55
2023-03-12T20:32:29.422Z,28.35
2023-03-12T20:37:30.860Z,24.33
2023-03-12T20:42:32.604Z,27.98
2023-03-12T20:47:34.556Z,24.60
2023-03-12T20:52:36.195Z,20.38
2023-03-12T20:57:37.627Z,24.35
2023-03-12T21:02:39.121Z,19.92
2023-03-12T21:07:40.900Z,23.77
2023-03-12T21:12:42.452Z,19.67
2023-03-12T21:17:43.988Z,27.00
2023-03-12T21:22:46.858Z,21.90
2023-03-12T21:27:51.380Z,28.52
2023-03-12T21:32:53.324Z,29.73
2023-03-12T21:37:56.235Z,24.70
2023-03-12T21:42:57.693Z,26.52
2023-03-12T21:47:59.078Z,22.45
2023-03-12T21:53:00.509Z,25.58
2023-03-12T21:58:01.917Z,26.02
2023-03-12T22:03:03.355Z,23.95
2023-03-12T22:08:04.848Z,25.67
2023-03-12T22:13:06.242Z,22.67
2023-03-12T22:18:07.771Z,27.00
2023-03-12T22:23:09.240Z,26.38
2023-03-12T22:28:10.735Z,24.52
2023-03-12T22:33:12.232Z,23.40
2023-03-12T22:38:13.760Z,20.25
2023-03-12T22:43:15.609Z,19.45
2023-03-12T22:48:17.046Z,23.67
2023-03-12T22:53:18.430Z,23.65
2023-03-12T22:58:19.796Z,20.13
2023-03-12T23:03:21.175Z,24.88
2023-03-12T23:08:23.017Z,22.25
2023-03-12T23:13:25.274Z,23.98
2023-03-12T23:18:26.663Z,18.65
2023-03-12T23:23:28.730Z,26.70
2023-03-12T23:28:30.206Z,23.48
2023-03-12T23:33:32.065Z,25.00
2023-03-12T23:38:37.335Z,25.02
2023-03-12T23:43:39.245Z,26.48
2023-03-12T23:48:41.282Z,31.45
2023-03-12T23:53:44.008Z,23.58
2023-03-12T23:58:46.489Z,31.58
